METAR Data
IDs: Format: Raw Decoded Include TAF

Data at: 0920 UTC 18 Jan 2019

PATA 180852Z AUTO 00000KT 10SM CLR M27/M30 A2997 RMK AO2 SLP158 T12721300 411501278 51003 TSNO PNO
PATA 180752Z AUTO 11004KT 10SM CLR M23/M26 A2997 RMK AO2 SLP157 T12281261 TSNO PNO
PATA 180652Z AUTO 09003KT 10SM CLR M21/M24 A2997 RMK AO2 SLP157 T12111244 TSNO PNO
PATA 180552Z 00000KT 10SM CLR M22/M25 A2996 RMK AO2 SLP155 T12171250 11172 21233 55002 PNO
PATA 180452Z 09005KT 10SM CLR M23/M26 A2996 RMK AO2 SLP153 T12281256 PNO
PATA 180352Z 00000KT 10SM CLR M22/M25 A2996 RMK AO2 SLP156 T12171250 PNO
PATA 180252Z 11005KT 10SM CLR M19/M23 A2997 RMK AO2 SLP157 T11891233 53003 PNO
PATA 180152Z 06003KT 10SM FEW180 M21/M24 A2997 RMK AO2 SLP157 T12111244 PNO
PATA 180052Z 00000KT 10SM FEW180 M19/M23 A2996 RMK AO2 SLP153 T11891233 PNO
PATA 172352Z 08005KT 10SM FEW180 M17/M23 A2996 RMK AO2 SLP153 T11721228 11167 21211 58004 PNO
PATA 172252Z 08008KT 10SM CLR M17/M23 A2996 RMK AO2 SLP155 T11721228 PNO
PATA 172152Z 09004KT 10SM CLR M17/M23 A2997 RMK AO2 SLP156 T11721228 PNO
PATA 172052Z 00000KT 10SM CLR M18/M23 A2997 RMK AO2 SLP157 T11831228 51004 PNO
PATA 171952Z 02004KT 10SM CLR M21/M23 A2996 RMK AO2 SLP154 T12061233 PNO
PATA 171852Z 08008KT 10SM CLR M18/M22 A2996 RMK AO2 SLP155 T11781222 PNO
PATA 171752Z 07004KT 10SM CLR M21/M23 A2996 RMK AO2 SLP152 4/013 933026 T12061233 11156 21228 56003 PNO
PATA 171652Z 00000KT 10SM CLR M19/M23 A2996 RMK AO2 SLP153 T11941228 PNO
PATA 171552Z 36003KT 10SM CLR M20/M24 A2996 RMK AO2 SLP154 T12001239 PNO
PATA 171452Z AUTO VRB03KT 10SM CLR M19/M23 A2997 RMK AO2 SLP156 T11941233 58001 TSNO PNO
PATA 171352Z AUTO 04003KT 10SM CLR M18/M22 A2997 RMK AO2 SLP157 T11781222 TSNO PNO
PATA 171252Z AUTO 00000KT 10SM CLR M17/M22 A2998 RMK AO2 SLP159 T11671217 TSNO PNO
PATA 171152Z AUTO 09008KT 10SM CLR M16/M22 A2997 RMK AO2 SLP157 T11611217 11150 21178 50000 TSNO PNO
PATA 171052Z AUTO 09011KT 10SM CLR M16/M21 A2997 RMK AO2 SLP157 T11561211 TSNO PNO
PATA 170952Z AUTO 08010KT 10SM CLR M16/M21 A2997 RMK AO2 SLP158 T11561211 TSNO PNO
PATA 170852Z AUTO 08010G17KT 10SM CLR M15/M21 A2997 RMK AO2 SLP157 T11501206 411331156 51006 TSNO PNO
PATA 170752Z AUTO 07011G18KT 10SM CLR M15/M21 A2997 RMK AO2 SLP157 T11501206 TSNO PNO
PATA 170652Z AUTO 06010KT 10SM CLR M15/M21 A2996 RMK AO2 SLP154 T11501206 TSNO PNO
PATA 170552Z 08013KT 10SM CLR M16/M21 A2995 RMK AO2 SLP151 T11561206 11139 21156 58002 PNO
PATA 170452Z 08013KT 10SM CLR M15/M21 A2995 RMK AO2 SLP151 T11501206 PNO
PATA 170352Z 08013KT 10SM FEW130 M15/M21 A2997 RMK AO2 SLP156 T11501206 PNO
PATA 170252Z 07012KT 10SM FEW150 M14/M20 A2996 RMK AO2 SLP153 T11441200 50005 PNO
PATA 170152Z 07011G20KT 10SM SCT150 M14/M20 A2996 RMK AO2 SLP153 T11441200 PNO
PATA 170052Z 07012KT 10SM FEW150 M14/M19 A2995 RMK AO2 SLP152 T11441194 PNO
PATA 162352Z 08016G28KT 10SM FEW150 M14/M19 A2994 RMK AO2 PK WND 08028/2345 SLP148 T11441194 11133 21150 56005 PNO
PATA 162252Z 08013G21KT 10SM FEW130 M14/M19 A2995 RMK AO2 SLP150 T11391194 PNO
PATA 162152Z 09011KT 10SM CLR M14/M19 A2995 RMK AO2 SLP149 T11391194 PNO